createdAt,value
2022-12-26T00:01:09.666Z,98572.16
2022-12-26T00:03:38.140Z,98572.16
2022-12-26T00:06:14.492Z,98579.94
2022-12-26T00:08:43.036Z,98581.50
2022-12-26T00:11:10.967Z,98589.19
2022-12-26T00:13:41.677Z,98605.59
2022-12-26T00:16:19.481Z,98597.66
2022-12-26T00:18:47.196Z,98594.00
2022-12-26T00:21:16.777Z,98581.59
2022-12-26T00:23:44.130Z,98586.59
2022-12-26T00:26:17.769Z,98587.22
2022-12-26T00:28:45.749Z,98583.53
2022-12-26T00:31:18.379Z,98588.56
2022-12-26T00:33:46.008Z,98593.72
2022-12-26T00:36:28.124Z,98610.66
2022-12-26T00:38:56.355Z,98618.75
2022-12-26T00:41:23.748Z,98623.19
2022-12-26T00:43:51.210Z,98626.88
2022-12-26T00:46:19.570Z,98621.75
2022-12-26T00:48:47.398Z,98613.22
2022-12-26T00:51:15.699Z,98606.25
2022-12-26T00:53:43.503Z,98597.41
2022-12-26T00:56:11.109Z,98602.38
2022-12-26T00:58:38.176Z,98596.88
2022-12-26T01:01:20.000Z,98599.22
2022-12-26T01:03:49.054Z,98603.53
2022-12-26T01:06:17.660Z,98598.19
2022-12-26T01:08:45.051Z,98595.38
2022-12-26T01:11:15.267Z,98597.00
2022-12-26T01:13:42.955Z,98588.06
2022-12-26T01:16:10.338Z,98587.94
2022-12-26T01:18:37.365Z,98598.31
2022-12-26T01:21:10.221Z,98583.44
2022-12-26T01:23:38.487Z,98582.44
2022-12-26T01:26:18.263Z,98583.19
2022-12-26T01:28:48.356Z,98578.72
2022-12-26T01:31:16.148Z,98589.22
2022-12-26T01:33:43.070Z,98580.41
2022-12-26T01:36:10.701Z,98577.66
2022-12-26T01:38:37.876Z,98592.53
2022-12-26T01:41:17.667Z,98586.34
2022-12-26T01:44:01.465Z,98588.06
2022-12-26T01:46:45.565Z,98603.09
2022-12-26T01:49:43.476Z,98596.19
2022-12-26T01:52:23.860Z,98601.38
2022-12-26T01:54:54.838Z,98600.63
2022-12-26T01:57:33.658Z,98603.16
2022-12-26T02:00:03.907Z,98597.91
2022-12-26T02:02:51.889Z,98586.50
2022-12-26T02:05:34.604Z,98585.56
2022-12-26T02:08:23.161Z,98588.06
2022-12-26T02:11:08.360Z,98574.81
2022-12-26T02:13:40.553Z,98568.53
2022-12-26T02:16:13.891Z,98551.00
2022-12-26T02:18:41.621Z,98539.59
2022-12-26T02:21:41.188Z,98552.53
2022-12-26T02:25:08.065Z,98554.94
2022-12-26T02:28:07.673Z,98557.44
2022-12-26T02:31:00.586Z,98577.34
2022-12-26T02:33:40.674Z,98569.38
2022-12-26T02:36:54.373Z,98570.97
2022-12-26T02:39:44.030Z,98559.59
2022-12-26T02:42:35.869Z,98544.63
2022-12-26T02:46:05.157Z,98535.78
2022-12-26T02:49:53.744Z,98528.66
2022-12-26T02:52:55.914Z,98543.44
2022-12-26T02:55:47.872Z,98553.13
2022-12-26T02:58:44.356Z,98547.97
2022-12-26T03:02:01.221Z,98537.34
2022-12-26T03:04:53.668Z,98543.34
2022-12-26T03:07:52.054Z,98537.97
2022-12-26T03:10:42.806Z,98540.38
2022-12-26T03:13:24.200Z,98543.09
2022-12-26T03:16:17.895Z,98535.94
2022-12-26T03:18:58.860Z,98532.38
2022-12-26T03:21:41.169Z,98541.00
2022-12-26T03:24:13.252Z,98528.78
2022-12-26T03:26:50.497Z,98534.75
2022-12-26T03:29:40.921Z,98534.72
2022-12-26T03:32:12.748Z,98532.06
2022-12-26T03:34:44.956Z,98534.59
2022-12-26T03:37:51.068Z,98544.19
2022-12-26T03:41:07.375Z,98541.44
2022-12-26T03:44:17.357Z,98543.16
2022-12-26T03:47:25.464Z,98544.00
2022-12-26T03:50:20.067Z,98536.94
2022-12-26T03:53:50.224Z,98537.84
2022-12-26T03:56:48.561Z,98543.88
2022-12-26T03:59:48.201Z,98545.56
2022-12-26T04:02:37.765Z,98549.16
2022-12-26T04:05:27.679Z,98542.94
2022-12-26T04:08:20.748Z,98536.84
2022-12-26T04:11:14.093Z,98532.56
2022-12-26T04:14:22.971Z,98515.91
2022-12-26T04:17:21.470Z,98509.84
2022-12-26T04:20:05.600Z,98504.69
2022-12-26T04:23:13.751Z,98517.81
2022-12-26T04:26:20.846Z,98519.59
2022-12-26T04:29:06.761Z,98516.97
2022-12-26T04:32:00.924Z,98520.44
2022-12-26T04:35:06.845Z,98531.69
2022-12-26T04:37:55.169Z,98540.47
2022-12-26T04:40:48.201Z,98555.25
2022-12-26T04:43:49.977Z,98553.63
2022-12-26T04:46:23.894Z,98546.50
2022-12-26T04:49:13.673Z,98540.47
2022-12-26T04:51:40.919Z,98545.47
2022-12-26T04:54:07.999Z,98549.94
2022-12-26T04:56:35.949Z,98555.94
2022-12-26T04:59:03.494Z,98562.13
2022-12-26T05:01:49.861Z,98561.06
2022-12-26T05:04:37.701Z,98565.44
2022-12-26T05:07:33.592Z,98562.81
2022-12-26T05:10:00.952Z,98555.75
2022-12-26T05:12:28.256Z,98567.91
2022-12-26T05:14:55.356Z,98564.44
2022-12-26T05:17:41.067Z,98573.19
2022-12-26T05:20:30.926Z,98575.69
2022-12-26T05:23:21.091Z,98576.41
2022-12-26T05:26:07.402Z,98571.09
2022-12-26T05:28:44.072Z,98563.91
2022-12-26T05:31:17.432Z,98570.84
2022-12-26T05:34:04.383Z,98574.28
2022-12-26T05:36:51.594Z,98568.09
2022-12-26T05:39:19.762Z,98573.16
2022-12-26T05:41:46.906Z,98577.63
2022-12-26T05:44:14.219Z,98574.88
2022-12-26T05:46:42.655Z,98577.38
2022-12-26T05:49:10.407Z,98558.03
2022-12-26T05:51:37.500Z,98560.59
2022-12-26T05:54:05.158Z,98569.31
2022-12-26T05:56:32.063Z,98563.03
2022-12-26T05:59:01.709Z,98563.97
2022-12-26T06:01:30.593Z,98569.97
2022-12-26T06:04:00.239Z,98562.84
2022-12-26T06:06:28.101Z,98563.63
2022-12-26T06:08:57.089Z,98565.34
2022-12-26T06:11:26.758Z,98563.69
2022-12-26T06:13:55.371Z,98568.00
2022-12-26T06:16:22.850Z,98566.19
2022-12-26T06:18:50.134Z,98548.59
2022-12-26T06:21:21.254Z,98553.88
2022-12-26T06:23:50.444Z,98550.34
2022-12-26T06:26:17.848Z,98540.69
2022-12-26T06:28:46.735Z,98543.16
2022-12-26T06:31:21.488Z,98542.44
2022-12-26T06:33:54.382Z,98540.44
2022-12-26T06:36:25.141Z,98539.53
2022-12-26T06:38:53.200Z,98540.31
2022-12-26T06:41:23.424Z,98528.13
2022-12-26T06:43:52.002Z,98535.78
2022-12-26T06:46:22.911Z,98538.41
2022-12-26T06:48:50.480Z,98547.81
2022-12-26T06:51:22.926Z,98548.47
2022-12-26T06:53:52.094Z,98557.94
2022-12-26T06:56:23.821Z,98542.91
2022-12-26T06:58:56.353Z,98547.41
2022-12-26T07:01:26.134Z,98547.97
2022-12-26T07:03:54.807Z,98546.97
2022-12-26T07:06:21.881Z,98542.47
2022-12-26T07:08:49.210Z,98548.63
2022-12-26T07:11:20.922Z,98552.19
2022-12-26T07:13:48.091Z,98542.72
2022-12-26T07:16:15.791Z,98538.09
2022-12-26T07:18:43.356Z,98533.59
2022-12-26T07:21:14.706Z,98533.47
2022-12-26T07:23:42.686Z,98525.56
2022-12-26T07:26:10.334Z,98528.13
2022-12-26T07:28:38.512Z,98518.50
2022-12-26T07:31:06.427Z,98535.16
2022-12-26T07:33:34.628Z,98523.75
2022-12-26T07:36:05.184Z,98536.03
2022-12-26T07:38:35.342Z,98544.66
2022-12-26T07:41:22.466Z,98534.03
2022-12-26T07:43:49.393Z,98539.25
2022-12-26T07:46:16.813Z,98548.78
2022-12-26T07:48:43.918Z,98545.25
2022-12-26T07:51:11.564Z,98544.28
2022-12-26T07:53:38.728Z,98551.28
2022-12-26T07:56:06.546Z,98560.81
2022-12-26T07:58:33.471Z,98557.06
2022-12-26T08:01:02.492Z,98565.84
2022-12-26T08:03:29.773Z,98563.13
2022-12-26T08:05:57.728Z,98557.78
2022-12-26T08:08:24.775Z,98556.84
2022-12-26T08:11:03.219Z,98564.75
2022-12-26T08:13:30.855Z,98555.88
2022-12-26T08:15:58.979Z,98558.56
2022-12-26T08:18:26.610Z,98568.22
2022-12-26T08:20:53.848Z,98564.56
2022-12-26T08:23:20.739Z,98567.06
2022-12-26T08:25:48.020Z,98572.41
2022-12-26T08:28:15.154Z,98576.63
2022-12-26T08:30:43.157Z,98577.53
2022-12-26T08:33:11.928Z,98577.53
2022-12-26T08:35:40.178Z,98582.75
2022-12-26T08:38:07.490Z,98591.38
2022-12-26T08:40:43.601Z,98589.59
2022-12-26T08:43:31.914Z,98586.03
2022-12-26T08:46:05.887Z,98580.69
2022-12-26T08:48:34.778Z,98580.75
2022-12-26T08:51:06.852Z,98586.88
2022-12-26T08:53:35.845Z,98587.59
2022-12-26T08:56:06.929Z,98583.97
2022-12-26T08:58:35.317Z,98586.59
2022-12-26T09:01:15.041Z,98591.69
2022-12-26T09:03:42.942Z,98600.44
2022-12-26T09:06:13.582Z,98604.78
2022-12-26T09:08:42.594Z,98602.00
2022-12-26T09:11:23.509Z,98602.72
2022-12-26T09:13:50.701Z,98593.03
2022-12-26T09:16:27.435Z,98614.78
2022-12-26T09:18:59.706Z,98612.00
2022-12-26T09:21:28.806Z,98607.44
2022-12-26T09:24:01.978Z,98605.50
2022-12-26T09:26:30.164Z,98610.72
2022-12-26T09:28:57.801Z,98618.41
2022-12-26T09:31:31.579Z,98607.84
2022-12-26T09:34:01.184Z,98604.06
2022-12-26T09:36:35.321Z,98606.66
2022-12-26T09:39:02.603Z,98602.16
2022-12-26T09:42:08.710Z,98599.44
2022-12-26T09:44:35.699Z,98606.41
2022-12-26T09:47:40.425Z,98609.78
2022-12-26T09:50:14.993Z,98608.84
2022-12-26T09:53:05.239Z,98598.13
2022-12-26T09:55:51.450Z,98611.25
2022-12-26T09:58:31.558Z,98603.28
2022-12-26T10:01:11.627Z,98608.34
2022-12-26T10:03:47.782Z,98595.91
2022-12-26T10:06:34.089Z,98596.53
2022-12-26T10:09:38.196Z,98575.25
2022-12-26T10:12:05.058Z,98567.25
2022-12-26T10:14:55.838Z,98560.19
2022-12-26T10:17:44.601Z,98574.16
2022-12-26T10:20:39.998Z,98570.53
2022-12-26T10:23:47.574Z,98569.59
2022-12-26T10:26:23.121Z,98565.88
2022-12-26T10:29:15.371Z,98558.66
2022-12-26T10:31:58.425Z,98574.41
2022-12-26T10:34:45.535Z,98572.44
2022-12-26T10:37:40.801Z,98567.63
2022-12-26T10:40:25.055Z,98562.16
2022-12-26T10:43:20.598Z,98549.41
2022-12-26T10:46:15.539Z,98563.09
2022-12-26T10:48:42.876Z,98561.06
2022-12-26T10:51:10.189Z,98566.03
2022-12-26T10:53:45.802Z,98569.22
2022-12-26T10:56:16.482Z,98567.28
2022-12-26T10:58:47.486Z,98553.91
2022-12-26T11:01:52.943Z,98555.84
2022-12-26T11:05:02.190Z,98556.19
2022-12-26T11:07:13.164Z,98551.97
2022-12-26T11:09:45.828Z,98547.88
2022-12-26T11:12:50.167Z,98552.09
2022-12-26T11:15:37.805Z,98548.34
2022-12-26T11:18:28.045Z,98541.75
2022-12-26T11:20:55.346Z,98547.06
2022-12-26T11:23:27.078Z,98539.63
2022-12-26T11:25:58.730Z,98542.28
2022-12-26T11:28:37.495Z,98545.53
2022-12-26T11:31:08.023Z,98547.50
2022-12-26T11:33:46.654Z,98544.16
2022-12-26T11:36:16.934Z,98547.84
2022-12-26T11:39:05.221Z,98544.16
2022-12-26T11:41:42.538Z,98548.09
2022-12-26T11:44:35.988Z,98537.84
2022-12-26T11:47:17.289Z,98536.97
2022-12-26T11:50:12.125Z,98540.31
2022-12-26T11:52:57.518Z,98536.66
2022-12-26T11:55:24.819Z,98538.38
2022-12-26T11:58:10.378Z,98529.66
2022-12-26T12:01:07.205Z,98543.31
2022-12-26T12:03:48.546Z,98528.19
2022-12-26T12:06:34.435Z,98533.66
2022-12-26T12:09:07.358Z,98541.28
2022-12-26T12:12:05.806Z,98538.47
2022-12-26T12:15:30.537Z,98538.28
2022-12-26T12:18:41.332Z,98539.56
2022-12-26T12:21:36.579Z,98542.19
2022-12-26T12:24:18.993Z,98542.56
2022-12-26T12:27:09.437Z,98544.84
2022-12-26T12:30:01.655Z,98541.88
2022-12-26T12:33:06.029Z,98552.53
2022-12-26T12:36:11.710Z,98553.66
2022-12-26T12:39:15.271Z,98550.41
2022-12-26T12:42:06.287Z,98528.44
2022-12-26T12:44:56.854Z,98530.00
2022-12-26T12:47:26.784Z,98532.72
2022-12-26T12:49:53.938Z,98537.19
2022-12-26T12:52:49.313Z,98521.47
2022-12-26T12:55:41.410Z,98517.41
2022-12-26T12:58:23.434Z,98503.25
2022-12-26T13:01:29.385Z,98511.81
2022-12-26T13:04:22.635Z,98530.47
2022-12-26T13:06:57.385Z,98544.03
2022-12-26T13:09:31.807Z,98545.00
2022-12-26T13:12:08.383Z,98541.72
2022-12-26T13:14:59.772Z,98539.84
2022-12-26T13:17:45.965Z,98524.47
2022-12-26T13:20:27.325Z,98513.47
2022-12-26T13:23:23.103Z,98515.59
2022-12-26T13:26:16.525Z,98529.94
2022-12-26T13:29:20.560Z,98528.97
2022-12-26T13:31:48.041Z,98530.09
2022-12-26T13:34:20.064Z,98500.78
2022-12-26T13:36:52.431Z,98485.78
2022-12-26T13:39:28.022Z,98470.25
2022-12-26T13:42:37.368Z,98451.22
2022-12-26T13:45:37.312Z,98470.13
2022-12-26T13:48:16.164Z,98529.50
2022-12-26T13:50:56.187Z,98540.94
2022-12-26T13:53:59.674Z,98549.78
2022-12-26T13:56:26.762Z,98570.94
2022-12-26T13:59:26.155Z,98565.28
2022-12-26T14:02:14.641Z,98556.47
2022-12-26T14:05:52.406Z,98548.63
2022-12-26T14:08:34.348Z,98538.66
2022-12-26T14:11:44.335Z,98522.78
2022-12-26T14:14:59.748Z,98546.59
2022-12-26T14:18:00.744Z,98542.16
2022-12-26T14:20:51.916Z,98559.13
2022-12-26T14:23:47.197Z,98544.19
2022-12-26T14:26:52.946Z,98550.97
2022-12-26T14:29:51.058Z,98552.53
2022-12-26T14:32:53.489Z,98562.31
2022-12-26T14:35:39.640Z,98559.91
2022-12-26T14:38:52.823Z,98561.94
2022-12-26T14:41:39.345Z,98567.63
2022-12-26T14:44:22.012Z,98570.81
2022-12-26T14:46:48.871Z,98569.00
2022-12-26T14:49:35.897Z,98573.59
2022-12-26T14:52:24.974Z,98602.59
2022-12-26T14:54:53.973Z,98606.94
2022-12-26T14:57:50.680Z,98607.88
2022-12-26T15:00:20.882Z,98595.53
2022-12-26T15:03:01.645Z,98592.03
2022-12-26T15:05:39.219Z,98599.78
2022-12-26T15:08:46.149Z,98607.81
2022-12-26T15:11:39.533Z,98603.53
2022-12-26T15:14:49.481Z,98607.00
2022-12-26T15:17:45.602Z,98609.44
2022-12-26T15:20:44.451Z,98607.72
2022-12-26T15:23:49.300Z,98608.97
2022-12-26T15:26:33.197Z,98604.63
2022-12-26T15:29:21.065Z,98609.63
2022-12-26T15:32:03.912Z,98607.75
2022-12-26T15:35:14.590Z,98611.19
2022-12-26T15:38:34.138Z,98619.34
2022-12-26T15:41:31.760Z,98613.09
2022-12-26T15:44:38.680Z,98609.00
2022-12-26T15:47:44.408Z,98619.91
2022-12-26T15:50:43.620Z,98604.13
2022-12-26T15:53:41.601Z,98608.78
2022-12-26T15:57:01.670Z,98621.38
2022-12-26T16:00:10.074Z,98620.38
2022-12-26T16:02:48.080Z,98625.44
2022-12-26T16:05:52.425Z,98621.53
2022-12-26T16:08:31.553Z,98622.25
2022-12-26T16:11:10.916Z,98609.31
2022-12-26T16:13:51.116Z,98608.16
2022-12-26T16:16:35.604Z,98602.81
2022-12-26T16:19:18.732Z,98605.31
2022-12-26T16:22:23.241Z,98608.91
2022-12-26T16:24:52.362Z,98614.81
2022-12-26T16:27:24.124Z,98625.81
2022-12-26T16:30:11.400Z,98610.97
2022-12-26T16:32:43.261Z,98611.19
2022-12-26T16:35:26.605Z,98609.72
2022-12-26T16:37:58.108Z,98614.03
2022-12-26T16:40:30.913Z,98618.28
2022-12-26T16:43:22.120Z,98613.91
2022-12-26T16:45:54.722Z,98615.13
2022-12-26T16:48:26.066Z,98622.09
2022-12-26T16:51:07.457Z,98623.91
2022-12-26T16:53:40.571Z,98634.53
2022-12-26T16:56:31.162Z,98630.66
2022-12-26T16:59:12.632Z,98632.47
2022-12-26T17:01:54.699Z,98634.81
2022-12-26T17:04:26.687Z,98623.44
2022-12-26T17:07:06.848Z,98631.53
2022-12-26T17:09:49.798Z,98636.91
2022-12-26T17:12:39.599Z,98635.94
2022-12-26T17:15:08.258Z,98637.66
2022-12-26T17:17:38.584Z,98634.00
2022-12-26T17:20:24.567Z,98644.28
2022-12-26T17:22:57.232Z,98638.44
2022-12-26T17:25:33.797Z,98644.50
2022-12-26T17:28:23.174Z,98646.09
2022-12-26T17:30:53.435Z,98642.56
2022-12-26T17:33:27.440Z,98646.03
2022-12-26T17:39:24.869Z,98643.38
2022-12-26T17:42:00.271Z,98639.00
2022-12-26T17:44:34.623Z,98640.25
2022-12-26T17:47:28.634Z,98643.72
2022-12-26T17:49:57.151Z,98628.91
2022-12-26T17:52:30.172Z,98622.53
2022-12-26T17:54:58.547Z,98628.59
2022-12-26T17:57:29.066Z,98633.38
2022-12-26T17:59:57.489Z,98627.94
2022-12-26T18:02:25.075Z,98623.97
2022-12-26T18:04:52.550Z,98630.34
2022-12-26T18:07:31.123Z,98634.81
2022-12-26T18:10:01.938Z,98636.75
2022-12-26T18:12:29.411Z,98623.41
2022-12-26T18:15:01.662Z,98615.47
2022-12-26T18:17:33.543Z,98623.53
2022-12-26T18:20:01.971Z,98611.84
2022-12-26T18:22:29.246Z,98615.56
2022-12-26T18:24:56.183Z,98628.69
2022-12-26T18:27:30.916Z,98612.84
2022-12-26T18:29:59.147Z,98612.84
2022-12-26T18:32:33.946Z,98602.41
2022-12-26T18:35:01.285Z,98598.22
2022-12-26T18:37:30.692Z,98598.44
2022-12-26T18:39:57.606Z,98595.16
2022-12-26T18:42:26.307Z,98599.28
2022-12-26T18:44:53.231Z,98596.09
2022-12-26T18:47:22.478Z,98603.16
2022-12-26T18:49:50.157Z,98602.09
2022-12-26T18:52:18.137Z,98603.94
2022-12-26T18:54:45.480Z,98608.72
2022-12-26T18:57:20.261Z,98612.16
2022-12-26T18:59:48.338Z,98598.94
2022-12-26T19:02:19.177Z,98597.72
2022-12-26T19:04:48.629Z,98590.59
2022-12-26T19:07:20.489Z,98586.09
2022-12-26T19:09:54.926Z,98595.22
2022-12-26T19:12:24.541Z,98579.31
2022-12-26T19:14:52.504Z,98580.09
2022-12-26T19:17:19.759Z,98573.03
2022-12-26T19:19:47.866Z,98563.22
2022-12-26T19:22:15.046Z,98565.69
2022-12-26T19:24:41.977Z,98570.78
2022-12-26T19:27:09.149Z,98573.34
2022-12-26T19:29:36.192Z,98582.34
2022-12-26T19:32:04.394Z,98591.88
2022-12-26T19:34:31.445Z,98577.84
2022-12-26T19:36:58.902Z,98568.66
2022-12-26T19:39:26.775Z,98563.22
2022-12-26T19:41:53.979Z,98557.44
2022-12-26T19:44:20.925Z,98550.31
2022-12-26T19:46:48.156Z,98535.53
2022-12-26T19:49:15.207Z,98542.81
2022-12-26T19:51:42.437Z,98561.22
2022-12-26T19:54:09.381Z,98563.00
2022-12-26T19:56:36.653Z,98572.63
2022-12-26T19:59:04.011Z,98574.34
2022-12-26T20:01:33.147Z,98576.75
2022-12-26T20:04:04.151Z,98583.75
2022-12-26T20:06:35.585Z,98576.63
2022-12-26T20:09:09.444Z,98566.91
2022-12-26T20:11:44.263Z,98574.06
2022-12-26T20:14:16.714Z,98584.41
2022-12-26T20:17:05.035Z,98586.88
2022-12-26T20:19:31.659Z,98587.75
2022-12-26T20:21:58.870Z,98593.75
2022-12-26T20:24:25.994Z,98583.19
2022-12-26T20:26:53.256Z,98576.03
2022-12-26T20:29:20.468Z,98575.06
2022-12-26T20:31:47.827Z,98578.34
2022-12-26T20:34:14.841Z,98577.47
2022-12-26T20:36:42.134Z,98593.16
2022-12-26T20:39:17.320Z,98614.66
2022-12-26T20:41:45.829Z,98638.41
2022-12-26T20:44:14.786Z,98650.16
2022-12-26T20:46:43.539Z,98637.13
2022-12-26T20:49:11.256Z,98639.41
2022-12-26T20:51:41.917Z,98648.66
2022-12-26T20:54:12.173Z,98658.94
2022-12-26T20:56:40.465Z,98654.19
2022-12-26T20:59:08.080Z,98656.47
2022-12-26T21:01:37.627Z,98665.13
2022-12-26T21:04:05.604Z,98675.44
2022-12-26T21:06:36.490Z,98678.25
2022-12-26T21:09:06.666Z,98671.59
2022-12-26T21:11:39.134Z,98673.59
2022-12-26T21:14:13.102Z,98664.28
2022-12-26T21:16:54.112Z,98682.78
2022-12-26T21:19:23.698Z,98690.69
2022-12-26T21:21:54.686Z,98694.28
2022-12-26T21:24:31.878Z,98694.59
2022-12-26T21:26:59.422Z,98691.13
2022-12-26T21:29:30.641Z,98684.00
2022-12-26T21:31:59.617Z,98692.69
2022-12-26T21:34:30.641Z,98697.34
2022-12-26T21:37:17.449Z,98681.44
2022-12-26T21:39:45.337Z,98677.84
2022-12-26T21:42:12.589Z,98689.44
2022-12-26T21:44:39.728Z,98696.59
2022-12-26T21:47:10.192Z,98689.50
2022-12-26T21:49:37.762Z,98704.38
2022-12-26T21:52:07.154Z,98707.06
2022-12-26T21:54:53.163Z,98719.28
2022-12-26T21:57:21.597Z,98730.66
2022-12-26T21:59:58.466Z,98725.44
2022-12-26T22:02:53.945Z,98729.78
2022-12-26T22:05:25.021Z,98722.56
2022-12-26T22:07:58.430Z,98725.25
2022-12-26T22:10:49.475Z,98733.03
2022-12-26T22:13:18.321Z,98736.50
2022-12-26T22:16:03.865Z,98728.69
2022-12-26T22:18:43.018Z,98731.50
2022-12-26T22:21:13.911Z,98739.56
2022-12-26T22:23:43.276Z,98730.59
2022-12-26T22:26:14.215Z,98723.59
2022-12-26T22:28:42.493Z,98725.50
2022-12-26T22:31:23.929Z,98709.88
2022-12-26T22:34:01.520Z,98693.28
2022-12-26T22:36:30.324Z,98711.53
2022-12-26T22:38:59.385Z,98726.72
2022-12-26T22:41:27.911Z,98730.28
2022-12-26T22:43:55.815Z,98726.94
2022-12-26T22:46:23.086Z,98746.13
2022-12-26T22:48:50.724Z,98755.72
2022-12-26T22:51:24.565Z,98752.44
2022-12-26T22:53:57.177Z,98762.03
2022-12-26T22:56:24.666Z,98762.13
2022-12-26T22:58:57.422Z,98778.28
2022-12-26T23:01:24.519Z,98779.38
2022-12-26T23:03:51.822Z,98781.59
2022-12-26T23:06:32.526Z,98788.59
2022-12-26T23:09:04.176Z,98786.75
2022-12-26T23:11:35.872Z,98780.72
2022-12-26T23:14:05.841Z,98775.59
2022-12-26T23:16:41.513Z,98785.75
2022-12-26T23:20:00.140Z,98786.66
2022-12-26T23:22:27.697Z,98779.97
2022-12-26T23:24:54.866Z,98784.34
2022-12-26T23:27:40.319Z,98783.50
2022-12-26T23:30:20.319Z,98781.66
2022-12-26T23:32:53.541Z,98794.69
2022-12-26T23:35:22.784Z,98787.69
2022-12-26T23:37:50.538Z,98789.41
2022-12-26T23:40:20.309Z,98787.78
2022-12-26T23:42:47.514Z,98797.72
2022-12-26T23:45:15.707Z,98796.06
2022-12-26T23:47:45.965Z,98806.59
2022-12-26T23:50:15.617Z,98808.44
2022-12-26T23:52:44.159Z,98804.56
2022-12-26T23:55:11.820Z,98800.22
2022-12-26T23:57:38.989Z,98803.91
